createdAt,value
2022-09-16T00:00:28.083Z,1.75
2022-09-16T00:02:55.571Z,1.13
2022-09-16T00:05:22.953Z,1.10
2022-09-16T00:07:49.961Z,1.33
2022-09-16T00:10:17.219Z,1.08
2022-09-16T00:12:44.027Z,1.30
2022-09-16T00:15:10.984Z,1.45
2022-09-16T00:17:38.477Z,1.10
2022-09-16T00:20:06.954Z,1.17
2022-09-16T00:22:34.139Z,0.98
2022-09-16T00:25:01.316Z,1.02
2022-09-16T00:27:28.615Z,1.30
2022-09-16T00:29:55.366Z,1.00
2022-09-16T00:32:24.084Z,1.15
2022-09-16T00:34:51.765Z,0.85
2022-09-16T00:37:19.028Z,1.33
2022-09-16T00:39:49.270Z,1.10
2022-09-16T00:42:16.745Z,0.75
2022-09-16T00:45:06.663Z,0.82
2022-09-16T00:47:41.928Z,0.90
2022-09-16T00:50:21.989Z,1.00
2022-09-16T00:52:51.047Z,1.02
2022-09-16T00:55:23.594Z,1.02
2022-09-16T00:57:51.766Z,1.13
2022-09-16T01:00:19.112Z,1.05
2022-09-16T01:02:46.586Z,1.30
2022-09-16T01:05:20.702Z,1.10
2022-09-16T01:07:52.466Z,0.75
2022-09-16T01:10:24.525Z,1.08
2022-09-16T01:13:02.531Z,1.80
2022-09-16T01:15:42.851Z,1.00
2022-09-16T01:18:18.432Z,1.13
2022-09-16T01:21:15.648Z,1.10
2022-09-16T01:24:07.818Z,1.02
2022-09-16T01:26:46.549Z,1.20
2022-09-16T01:29:28.157Z,1.35
2022-09-16T01:32:05.559Z,0.80
2022-09-16T01:34:45.326Z,1.17
2022-09-16T01:37:56.024Z,1.00
2022-09-16T01:40:31.986Z,0.80
2022-09-16T01:43:25.599Z,0.82
2022-09-16T01:45:52.761Z,0.93
2022-09-16T01:48:31.461Z,0.80
2022-09-16T01:50:58.673Z,0.85
2022-09-16T01:53:36.176Z,0.80
2022-09-16T01:56:26.933Z,0.90
2022-09-16T01:59:04.525Z,1.08
2022-09-16T02:01:47.590Z,1.00
2022-09-16T02:04:23.638Z,0.80
2022-09-16T02:06:53.104Z,0.80
2022-09-16T02:09:41.619Z,0.93
2022-09-16T02:12:16.658Z,1.02
2022-09-16T02:14:46.019Z,0.85
2022-09-16T02:17:20.072Z,1.50
2022-09-16T02:19:54.791Z,0.82
2022-09-16T02:22:30.354Z,0.82
2022-09-16T02:25:00.511Z,0.70
2022-09-16T02:27:30.515Z,0.65
2022-09-16T02:30:04.216Z,0.65
2022-09-16T02:32:33.790Z,1.00
2022-09-16T02:35:02.706Z,0.80
2022-09-16T02:37:58.330Z,0.95
2022-09-16T02:40:32.301Z,1.52
2022-09-16T02:42:59.651Z,1.08
2022-09-16T02:45:32.635Z,1.25
2022-09-16T02:47:59.828Z,1.23
2022-09-16T02:50:39.787Z,1.05
2022-09-16T02:53:22.807Z,0.90
2022-09-16T02:55:58.932Z,0.95
2022-09-16T03:00:54.532Z,0.70
2022-09-16T03:03:22.040Z,0.80
2022-09-16T03:06:07.599Z,0.68
2022-09-16T03:08:35.607Z,1.17
2022-09-16T03:11:14.159Z,0.88
2022-09-16T03:13:50.303Z,1.35
2022-09-16T03:16:21.485Z,0.75
2022-09-16T03:18:58.378Z,1.02
2022-09-16T03:21:30.888Z,0.90
2022-09-16T03:24:08.655Z,1.05
2022-09-16T03:26:40.315Z,1.33
2022-09-16T03:29:12.417Z,1.23
2022-09-16T03:31:46.918Z,0.80
2022-09-16T03:34:20.196Z,0.82
2022-09-16T03:36:50.342Z,0.95
2022-09-16T03:39:17.855Z,1.52
2022-09-16T03:41:45.444Z,1.55
2022-09-16T03:44:12.599Z,1.05
2022-09-16T03:46:39.413Z,1.02
2022-09-16T03:49:06.679Z,1.02
2022-09-16T03:51:33.899Z,0.80
2022-09-16T03:54:01.151Z,0.80
2022-09-16T03:56:28.349Z,1.10
2022-09-16T03:58:55.549Z,0.90
2022-09-16T04:01:22.964Z,0.65
2022-09-16T04:03:50.225Z,0.85
2022-09-16T04:06:17.443Z,0.88
2022-09-16T04:08:45.081Z,1.10
2022-09-16T04:11:12.285Z,1.00
2022-09-16T04:13:39.516Z,1.08
2022-09-16T04:16:06.810Z,0.90
2022-09-16T04:18:35.176Z,0.75
2022-09-16T04:21:04.777Z,0.93
2022-09-16T04:23:31.710Z,1.20
2022-09-16T04:26:00.056Z,0.90
2022-09-16T04:28:27.839Z,1.65
2022-09-16T04:30:55.210Z,1.00
2022-09-16T04:33:22.747Z,1.15
2022-09-16T04:35:49.949Z,1.08
2022-09-16T04:38:17.184Z,0.98
2022-09-16T04:40:44.358Z,0.90
2022-09-16T04:43:11.594Z,1.25
2022-09-16T04:45:38.792Z,1.13
2022-09-16T04:48:06.263Z,1.23
2022-09-16T04:50:33.012Z,1.77
2022-09-16T04:53:00.516Z,1.00
2022-09-16T04:55:27.687Z,0.90
2022-09-16T04:57:54.880Z,0.85
2022-09-16T05:00:22.088Z,0.93
2022-09-16T05:02:49.857Z,1.00
2022-09-16T05:05:17.328Z,1.10
2022-09-16T05:07:44.564Z,1.45
2022-09-16T05:10:12.087Z,0.95
2022-09-16T05:12:39.641Z,0.90
2022-09-16T05:15:07.792Z,1.20
2022-09-16T05:17:50.477Z,1.00
2022-09-16T05:20:18.696Z,1.05
2022-09-16T05:22:46.556Z,1.25
2022-09-16T05:25:13.789Z,0.98
2022-09-16T05:27:40.954Z,1.63
2022-09-16T05:30:08.397Z,1.10
2022-09-16T05:32:35.607Z,1.08
2022-09-16T05:35:02.772Z,1.35
2022-09-16T05:37:29.927Z,1.02
2022-09-16T05:39:57.148Z,1.30
2022-09-16T05:42:24.464Z,1.17
2022-09-16T05:44:51.659Z,1.02
2022-09-16T05:47:18.919Z,0.95
2022-09-16T05:49:46.192Z,1.08
2022-09-16T05:52:13.400Z,0.90
2022-09-16T05:54:40.622Z,1.77
2022-09-16T05:57:07.933Z,1.17
2022-09-16T05:59:35.579Z,1.15
2022-09-16T06:02:02.912Z,1.00
2022-09-16T06:04:30.304Z,0.88
2022-09-16T06:06:57.474Z,0.85
2022-09-16T06:09:25.621Z,1.00
2022-09-16T06:12:00.753Z,1.00
2022-09-16T06:14:29.262Z,1.45
2022-09-16T06:16:56.860Z,1.00
2022-09-16T06:19:24.447Z,2.10
2022-09-16T06:21:52.129Z,1.20
2022-09-16T06:24:20.146Z,0.90
2022-09-16T06:26:48.407Z,1.30
2022-09-16T06:29:16.651Z,1.15
2022-09-16T06:31:44.067Z,1.15
2022-09-16T06:34:14.417Z,1.27
2022-09-16T06:36:45.027Z,1.20
2022-09-16T06:39:13.444Z,1.50
2022-09-16T06:41:40.733Z,1.77
2022-09-16T06:44:08.162Z,1.10
2022-09-16T06:46:35.393Z,1.02
2022-09-16T06:49:05.704Z,1.25
2022-09-16T06:51:34.207Z,1.20
2022-09-16T06:54:02.528Z,1.00
2022-09-16T06:56:29.748Z,1.25
2022-09-16T06:58:57.415Z,1.13
2022-09-16T07:01:26.341Z,0.90
2022-09-16T07:03:54.239Z,1.20
2022-09-16T07:06:22.028Z,1.02
2022-09-16T07:08:49.372Z,1.35
2022-09-16T07:11:21.037Z,0.93
2022-09-16T07:13:49.103Z,0.90
2022-09-16T07:16:17.650Z,1.08
2022-09-16T07:18:45.234Z,1.60
2022-09-16T07:21:13.909Z,0.90
2022-09-16T07:23:41.996Z,1.10
2022-09-16T07:26:15.476Z,1.00
2022-09-16T07:28:43.357Z,0.98
2022-09-16T07:31:13.195Z,0.90
2022-09-16T07:33:41.808Z,1.00
2022-09-16T07:36:10.790Z,1.13
2022-09-16T07:38:38.108Z,1.20
2022-09-16T07:41:09.725Z,0.80
2022-09-16T07:43:36.911Z,1.30
2022-09-16T07:46:04.967Z,0.93
2022-09-16T07:48:35.218Z,1.00
2022-09-16T07:51:05.726Z,1.08
2022-09-16T07:53:33.564Z,1.05
2022-09-16T07:56:04.647Z,0.88
2022-09-16T07:58:31.857Z,1.08
2022-09-16T08:01:04.034Z,1.00
2022-09-16T08:03:32.382Z,0.90
2022-09-16T08:06:04.397Z,1.02
2022-09-16T08:08:31.611Z,0.85
2022-09-16T08:11:00.078Z,1.23
2022-09-16T08:13:29.298Z,1.35
2022-09-16T08:16:02.030Z,0.90
2022-09-16T08:18:29.268Z,1.45
2022-09-16T08:20:56.548Z,0.68
2022-09-16T08:23:23.988Z,0.90
2022-09-16T08:25:58.650Z,1.77
2022-09-16T08:28:27.940Z,1.15
2022-09-16T08:31:00.295Z,1.15
2022-09-16T08:33:27.964Z,1.52
2022-09-16T08:36:01.876Z,1.35
2022-09-16T08:38:29.255Z,0.90
2022-09-16T08:41:08.848Z,0.85
2022-09-16T08:43:49.578Z,1.10
2022-09-16T08:46:21.446Z,1.00
2022-09-16T08:48:54.739Z,1.10
2022-09-16T08:51:22.956Z,1.73
2022-09-16T08:53:58.074Z,0.80
2022-09-16T08:56:27.428Z,1.13
2022-09-16T08:58:56.239Z,0.95
2022-09-16T09:01:26.849Z,1.10
2022-09-16T09:03:54.301Z,0.77
2022-09-16T09:06:21.534Z,0.77
2022-09-16T09:08:51.770Z,1.17
2022-09-16T09:11:34.682Z,0.90
2022-09-16T09:14:20.325Z,0.80
2022-09-16T09:17:03.784Z,1.23
2022-09-16T09:19:37.082Z,1.25
2022-09-16T09:22:22.724Z,1.00
2022-09-16T09:24:53.465Z,1.10
2022-09-16T09:27:37.839Z,1.40
2022-09-16T09:30:25.235Z,1.23
2022-09-16T09:33:01.633Z,0.85
2022-09-16T09:35:37.540Z,0.80
2022-09-16T09:38:19.842Z,0.75
2022-09-16T09:40:53.580Z,1.38
2022-09-16T09:43:58.103Z,1.52
2022-09-16T09:46:28.781Z,0.73
2022-09-16T09:48:56.395Z,1.02
2022-09-16T09:51:32.126Z,0.70
2022-09-16T09:54:12.787Z,0.80
2022-09-16T09:56:45.212Z,1.20
2022-09-16T09:59:31.454Z,0.60
2022-09-16T10:02:00.698Z,1.10
2022-09-16T10:04:30.340Z,1.05
2022-09-16T10:06:59.127Z,0.82
2022-09-16T10:09:26.572Z,0.60
2022-09-16T10:11:55.620Z,0.80
2022-09-16T10:14:40.934Z,0.90
2022-09-16T10:17:19.024Z,1.10
2022-09-16T10:20:00.421Z,0.90
2022-09-16T10:22:27.683Z,0.68
2022-09-16T10:24:56.513Z,0.70
2022-09-16T10:27:26.949Z,0.93
2022-09-16T10:30:08.681Z,0.70
2022-09-16T10:32:45.894Z,0.95
2022-09-16T10:35:36.422Z,0.65
2022-09-16T10:38:09.757Z,0.60
2022-09-16T10:40:37.325Z,0.90
2022-09-16T10:43:13.560Z,0.70
2022-09-16T10:45:46.504Z,0.70
2022-09-16T10:48:15.656Z,0.57
2022-09-16T10:50:59.455Z,0.52
2022-09-16T10:53:29.707Z,0.60
2022-09-16T10:55:58.099Z,0.70
2022-09-16T10:58:25.384Z,0.80
2022-09-16T11:01:06.675Z,0.90
2022-09-16T11:03:33.951Z,0.57
2022-09-16T11:06:07.277Z,0.90
2022-09-16T11:08:41.780Z,0.70
2022-09-16T11:11:27.314Z,0.68
2022-09-16T11:13:54.554Z,0.67
2022-09-16T11:16:26.825Z,0.80
2022-09-16T11:19:14.321Z,0.73
2022-09-16T11:22:00.239Z,0.63
2022-09-16T11:24:33.505Z,0.63
2022-09-16T11:27:09.842Z,0.60
2022-09-16T11:29:51.971Z,0.75
2022-09-16T11:32:19.187Z,0.65
2022-09-16T11:34:58.492Z,0.70
2022-09-16T11:37:28.786Z,0.70
2022-09-16T11:39:59.090Z,0.75
2022-09-16T11:42:31.023Z,0.60
2022-09-16T11:45:17.018Z,0.75
2022-09-16T11:47:48.955Z,0.60
2022-09-16T11:50:16.167Z,1.02
2022-09-16T11:53:01.331Z,0.50
2022-09-16T11:55:53.370Z,0.47
2022-09-16T11:58:20.091Z,0.80
2022-09-16T12:00:47.961Z,0.57
2022-09-16T12:03:29.254Z,0.80
2022-09-16T12:06:05.083Z,0.70
2022-09-16T12:08:38.977Z,0.70
2022-09-16T12:11:11.315Z,0.77
2022-09-16T12:13:44.792Z,0.68
2022-09-16T12:16:18.341Z,0.40
2022-09-16T12:18:48.722Z,0.68
2022-09-16T12:21:21.113Z,0.60
2022-09-16T12:24:07.397Z,0.95
2022-09-16T12:26:37.165Z,0.50
2022-09-16T12:29:07.423Z,0.73
2022-09-16T12:31:57.032Z,0.60
2022-09-16T12:34:34.175Z,0.75
2022-09-16T12:37:08.419Z,0.60
2022-09-16T12:39:35.359Z,0.68
2022-09-16T12:42:20.826Z,0.52
2022-09-16T12:44:54.293Z,0.75
2022-09-16T12:47:39.942Z,0.60
2022-09-16T12:50:07.104Z,0.87
2022-09-16T12:52:40.447Z,0.60
2022-09-16T12:55:09.080Z,0.77
2022-09-16T12:57:36.460Z,1.02
2022-09-16T13:00:03.635Z,0.90
2022-09-16T13:02:37.192Z,0.60
2022-09-16T13:05:18.416Z,0.65
2022-09-16T13:07:49.397Z,0.63
2022-09-16T13:10:16.552Z,0.50
2022-09-16T13:12:50.251Z,0.40
2022-09-16T13:15:36.811Z,0.50
2022-09-16T13:18:30.156Z,0.32
2022-09-16T13:20:59.518Z,0.40
2022-09-16T13:23:34.712Z,0.55
2022-09-16T13:26:09.411Z,0.50
2022-09-16T13:28:38.438Z,0.47
2022-09-16T13:31:12.342Z,0.40
2022-09-16T13:33:40.423Z,0.35
2022-09-16T13:36:22.700Z,0.40
2022-09-16T13:38:56.911Z,0.43
2022-09-16T13:41:37.193Z,0.63
2022-09-16T13:44:25.369Z,0.40
2022-09-16T13:46:52.590Z,0.45
2022-09-16T13:49:27.742Z,0.60
2022-09-16T13:51:55.159Z,0.63
2022-09-16T13:54:30.142Z,0.30
2022-09-16T13:57:12.525Z,0.40
2022-09-16T13:59:58.880Z,0.30
2022-09-16T14:02:32.127Z,0.50
2022-09-16T14:05:17.731Z,0.50
2022-09-16T14:07:45.087Z,0.40
2022-09-16T14:10:27.713Z,0.43
2022-09-16T14:12:54.925Z,0.40
2022-09-16T14:15:22.707Z,0.52
2022-09-16T14:17:52.274Z,0.47
2022-09-16T14:20:22.222Z,0.60
2022-09-16T14:22:59.521Z,0.38
2022-09-16T14:25:29.629Z,0.50
2022-09-16T14:28:17.302Z,0.40
2022-09-16T14:30:48.970Z,0.40
2022-09-16T14:33:16.767Z,0.30
2022-09-16T14:35:45.755Z,0.30
2022-09-16T14:38:41.195Z,0.30
2022-09-16T14:41:02.042Z,0.40
2022-09-16T14:43:28.974Z,0.40
2022-09-16T14:48:33.829Z,0.40
2022-09-16T14:51:01.469Z,0.40
2022-09-16T14:53:36.301Z,0.30
2022-09-16T14:58:32.920Z,0.40
2022-09-16T15:01:09.040Z,0.40
2022-09-16T15:03:41.626Z,0.40
2022-09-16T15:06:11.877Z,0.40
2022-09-16T15:08:47.157Z,0.50
2022-09-16T15:11:36.175Z,0.52
2022-09-16T15:14:07.409Z,0.32
2022-09-16T15:16:35.652Z,0.50
2022-09-16T15:19:04.877Z,0.40
2022-09-16T15:21:37.931Z,0.50
2022-09-16T15:24:06.510Z,0.40
2022-09-16T15:26:44.215Z,0.38
2022-09-16T15:29:27.942Z,0.40
2022-09-16T15:31:55.439Z,0.30
2022-09-16T15:34:23.941Z,0.35
2022-09-16T15:36:59.518Z,0.30
2022-09-16T15:39:28.406Z,0.38
2022-09-16T15:42:10.911Z,0.38
2022-09-16T15:44:38.676Z,0.30
2022-09-16T15:47:06.137Z,0.45
2022-09-16T15:49:37.886Z,0.40
2022-09-16T15:52:11.593Z,0.40
2022-09-16T15:54:50.684Z,0.45
2022-09-16T15:57:17.858Z,0.52
2022-09-16T15:59:57.406Z,0.40
2022-09-16T16:02:35.008Z,0.40
2022-09-16T16:05:09.733Z,0.40
2022-09-16T16:07:40.120Z,0.40
2022-09-16T16:10:36.338Z,0.50
2022-09-16T16:13:06.866Z,0.60
2022-09-16T16:15:35.115Z,0.35
2022-09-16T16:18:03.803Z,0.40
2022-09-16T16:20:33.831Z,0.30
2022-09-16T16:23:01.725Z,0.50
2022-09-16T16:25:28.747Z,0.38
2022-09-16T16:27:56.324Z,0.40
2022-09-16T16:30:23.761Z,0.47
2022-09-16T16:32:50.952Z,0.55
2022-09-16T16:35:18.230Z,0.50
2022-09-16T16:37:47.241Z,0.57
2022-09-16T16:40:15.222Z,0.60
2022-09-16T16:42:44.037Z,0.52
2022-09-16T16:45:14.497Z,0.75
2022-09-16T16:47:42.259Z,0.55
2022-09-16T16:50:09.784Z,0.60
2022-09-16T16:52:36.671Z,0.60
2022-09-16T16:55:03.975Z,0.82
2022-09-16T16:57:31.251Z,0.50
2022-09-16T16:59:58.456Z,0.50
2022-09-16T17:02:26.065Z,0.50
2022-09-16T17:04:53.288Z,0.75
2022-09-16T17:07:28.141Z,0.40
2022-09-16T17:09:59.146Z,0.57
2022-09-16T17:12:26.886Z,0.60
2022-09-16T17:14:54.170Z,0.40
2022-09-16T17:17:21.388Z,0.70
2022-09-16T17:19:48.554Z,0.85
2022-09-16T17:22:16.026Z,0.47
2022-09-16T17:24:43.267Z,0.50
2022-09-16T17:27:10.419Z,0.60
2022-09-16T17:29:37.570Z,0.60
2022-09-16T17:32:04.897Z,0.60
2022-09-16T17:34:32.639Z,0.43
2022-09-16T17:36:59.864Z,0.90
2022-09-16T17:39:27.093Z,0.40
2022-09-16T17:41:56.855Z,0.40
2022-09-16T17:44:24.979Z,0.43
2022-09-16T17:46:53.178Z,0.75
2022-09-16T17:49:22.448Z,0.60
2022-09-16T17:51:50.411Z,0.63
2022-09-16T17:54:17.982Z,0.50
2022-09-16T17:56:45.857Z,0.60
2022-09-16T17:59:14.096Z,0.35
2022-09-16T18:01:41.058Z,0.40
2022-09-16T18:04:08.654Z,0.55
2022-09-16T18:06:40.699Z,0.57
2022-09-16T18:09:07.550Z,0.60
2022-09-16T18:11:35.099Z,0.70
2022-09-16T18:14:03.497Z,0.70
2022-09-16T18:16:31.168Z,0.70
2022-09-16T18:18:59.704Z,0.70
2022-09-16T18:21:28.173Z,0.68
2022-09-16T18:23:56.800Z,0.88
2022-09-16T18:26:24.918Z,0.60
2022-09-16T18:29:19.708Z,0.60
2022-09-16T18:31:42.346Z,0.80
2022-09-16T18:34:09.685Z,0.60
2022-09-16T18:36:37.636Z,0.60
2022-09-16T18:39:06.173Z,0.70
2022-09-16T18:41:37.726Z,0.60
2022-09-16T18:44:07.888Z,1.00
2022-09-16T18:46:37.429Z,0.70
2022-09-16T18:49:05.491Z,0.90
2022-09-16T18:51:34.347Z,0.60
2022-09-16T18:54:02.970Z,0.70
2022-09-16T18:56:32.421Z,1.10
2022-09-16T19:01:52.297Z,0.60
2022-09-16T19:04:21.900Z,0.85
2022-09-16T19:06:50.372Z,0.77
2022-09-16T19:09:19.610Z,0.95
2022-09-16T19:11:47.650Z,0.90
2022-09-16T19:14:15.420Z,0.80
2022-09-16T19:16:44.713Z,1.05
2022-09-16T19:19:13.501Z,0.82
2022-09-16T19:21:41.125Z,0.70
2022-09-16T19:24:13.920Z,0.90
2022-09-16T19:26:41.812Z,0.80
2022-09-16T19:29:09.387Z,0.93
2022-09-16T19:31:38.142Z,0.60
2022-09-16T19:34:06.003Z,0.80
2022-09-16T19:36:33.869Z,0.60
2022-09-16T19:39:01.542Z,0.50
2022-09-16T19:41:30.592Z,0.70
2022-09-16T19:43:59.266Z,0.70
2022-09-16T19:46:27.512Z,0.60
2022-09-16T19:48:55.182Z,0.90
2022-09-16T19:51:23.753Z,1.00
2022-09-16T19:53:51.355Z,0.50
2022-09-16T19:56:21.786Z,0.57
2022-09-16T19:58:49.433Z,0.60
2022-09-16T20:01:18.566Z,0.65
2022-09-16T20:03:46.607Z,0.70
2022-09-16T20:06:18.318Z,0.70
2022-09-16T20:08:46.611Z,0.50
2022-09-16T20:11:19.312Z,0.68
2022-09-16T20:13:49.655Z,0.60
2022-09-16T20:16:17.716Z,0.60
2022-09-16T20:18:45.236Z,0.60
2022-09-16T20:21:20.885Z,0.50
2022-09-16T20:23:48.883Z,0.50
2022-09-16T20:26:19.697Z,0.50
2022-09-16T20:28:51.260Z,0.90
2022-09-16T20:31:28.474Z,0.60
2022-09-16T20:33:55.988Z,0.60
2022-09-16T20:36:24.426Z,0.45
2022-09-16T20:38:52.663Z,0.50
2022-09-16T20:41:21.311Z,0.50
2022-09-16T20:43:48.612Z,0.63
2022-09-16T20:46:19.005Z,0.52
2022-09-16T20:48:46.688Z,0.70
2022-09-16T20:51:14.986Z,0.75
2022-09-16T20:53:42.714Z,0.65
2022-09-16T20:56:14.889Z,0.50
2022-09-16T20:58:42.558Z,0.52
2022-09-16T21:01:17.347Z,0.50
2022-09-16T21:03:45.612Z,1.08
2022-09-16T21:06:16.177Z,0.70
2022-09-16T21:08:43.519Z,0.63
2022-09-16T21:11:11.691Z,0.65
2022-09-16T21:13:41.327Z,0.68
2022-09-16T21:16:10.261Z,0.45
2022-09-16T21:18:37.716Z,0.60
2022-09-16T21:21:05.556Z,0.60
2022-09-16T21:23:33.910Z,0.55
2022-09-16T21:26:27.507Z,0.40
2022-09-16T21:28:57.200Z,0.52
2022-09-16T21:31:25.548Z,0.57
2022-09-16T21:33:53.407Z,0.70
2022-09-16T21:36:21.614Z,0.60
2022-09-16T21:38:48.853Z,0.60
2022-09-16T21:41:17.272Z,0.45
2022-09-16T21:43:45.647Z,0.70
2022-09-16T21:46:14.025Z,0.60
2022-09-16T21:48:42.509Z,0.50
2022-09-16T21:51:14.994Z,0.50
2022-09-16T21:53:45.496Z,0.50
2022-09-16T21:56:16.987Z,0.50
2022-09-16T21:58:44.537Z,0.52
2022-09-16T22:01:18.877Z,0.40
2022-09-16T22:03:47.194Z,0.50
2022-09-16T22:06:16.083Z,0.60
2022-09-16T22:08:48.617Z,0.68
2022-09-16T22:11:20.177Z,0.57
2022-09-16T22:13:47.698Z,0.52
2022-09-16T22:16:17.319Z,0.60
2022-09-16T22:18:45.346Z,0.60
2022-09-16T22:21:13.690Z,0.60
2022-09-16T22:23:41.506Z,0.50
2022-09-16T22:26:10.358Z,0.50
2022-09-16T22:28:38.048Z,0.93
2022-09-16T22:31:15.825Z,0.60
2022-09-16T22:33:43.909Z,0.70
2022-09-16T22:36:12.556Z,0.60
2022-09-16T22:38:40.322Z,0.70
2022-09-16T22:41:09.381Z,0.60
2022-09-16T22:43:37.230Z,0.50
2022-09-16T22:46:13.123Z,0.47
2022-09-16T22:51:08.438Z,0.60
2022-09-16T22:53:35.293Z,0.70
2022-09-16T22:56:06.797Z,0.55
2022-09-16T22:58:34.479Z,0.55
2022-09-16T23:01:03.416Z,0.50
2022-09-16T23:03:30.769Z,0.60
2022-09-16T23:05:58.910Z,0.50
2022-09-16T23:08:26.615Z,0.68
2022-09-16T23:10:54.633Z,0.60
2022-09-16T23:13:23.236Z,0.80
2022-09-16T23:15:54.496Z,0.60
2022-09-16T23:18:21.889Z,0.57
2022-09-16T23:20:59.225Z,0.93
2022-09-16T23:23:27.034Z,0.60
2022-09-16T23:25:54.260Z,0.60
2022-09-16T23:28:21.705Z,0.68
2022-09-16T23:30:49.225Z,0.65
2022-09-16T23:33:16.024Z,0.57
2022-09-16T23:35:47.493Z,0.60
2022-09-16T23:38:14.403Z,0.70
2022-09-16T23:40:41.973Z,0.75
2022-09-16T23:43:09.709Z,0.60
2022-09-16T23:45:37.555Z,0.68
2022-09-16T23:48:05.618Z,0.95
2022-09-16T23:50:32.438Z,0.70
2022-09-16T23:52:59.843Z,0.65
2022-09-16T23:55:27.847Z,0.77
2022-09-16T23:57:54.920Z,0.70
